Time;durP1;ratioP1;P1;durP2;ratioP2;P2;SDS_P1;SDS_P2;PMS_P1;PMS_P2;Temp;Humidity;BMP_temperature;BMP_pressure;BME280_temperature;BME280_humidity;BME280_pressure;Samples;Min_cycle;Max_cycle;Signal;HPM_P1;HPM_P2
2022/05/21 00:02:06;;;;;;;12.80;7.95;;;;;;;16.93;100.00;96542.75;5029104;28;20451;-79
2022/05/21 00:04:32;;;;;;;11.38;7.28;;;;;;;16.96;100.00;96545.00;5045714;28;20546;-82
2022/05/21 00:06:58;;;;;;;12.02;6.85;;;;;;;16.92;100.00;96540.28;5020283;28;20041;-80
2022/05/21 00:09:25;;;;;;;11.05;7.13;;;;;;;16.95;100.00;96559.31;5050060;28;20082;-80
2022/05/21 00:11:51;;;;;;;10.63;6.82;;;;;;;16.90;100.00;96564.38;5037993;28;20037;-80
2022/05/21 00:14:16;;;;;;;11.98;6.75;;;;;;;16.83;100.00;96565.31;5018341;28;20175;-78
2022/05/21 00:16:42;;;;;;;10.35;6.60;;;;;;;16.84;100.00;96566.97;5029545;28;20044;-79
2022/05/21 00:19:08;;;;;;;12.05;7.05;;;;;;;16.79;100.00;96561.41;5017176;28;20037;-79
2022/05/21 00:21:33;;;;;;;13.50;7.05;;;;;;;16.75;100.00;96554.84;5031244;28;20030;-81
2022/05/21 00:23:59;;;;;;;11.82;5.93;;;;;;;16.75;100.00;96557.50;5019646;28;20076;-81
2022/05/21 00:26:25;;;;;;;11.27;5.75;;;;;;;16.72;100.00;96562.13;5026920;28;20029;-80
2022/05/21 00:28:51;;;;;;;11.77;5.70;;;;;;;16.68;100.00;96555.56;5012619;28;20068;-81
2022/05/21 00:31:18;;;;;;;11.27;5.85;;;;;;;16.68;100.00;96557.41;5018700;28;20048;-80
2022/05/21 00:33:46;;;;;;;9.23;5.38;;;;;;;16.56;100.00;96559.72;5051881;28;20025;-80
2022/05/21 00:36:12;;;;;;;11.35;5.53;;;;;;;16.55;100.00;96566.03;5020712;28;20045;-80
2022/05/21 00:38:39;;;;;;;10.07;5.78;;;;;;;16.62;100.00;96556.31;5014234;28;20044;-80
2022/05/21 00:41:06;;;;;;;11.95;5.85;;;;;;;16.46;100.00;96553.88;5022867;28;20017;-79
2022/05/21 00:43:52;;;;;;;8.65;5.13;;;;;;;16.39;100.00;96555.66;5029583;28;20029;-81
2022/05/21 00:46:23;;;;;;;9.23;5.07;;;;;;;16.25;100.00;96560.81;5027636;28;20042;-80
2022/05/21 00:49:17;;;;;;;7.57;5.20;;;;;;;16.29;100.00;96565.75;5025222;28;20040;-78
2022/05/21 00:51:46;;;;;;;7.75;5.30;;;;;;;16.24;100.00;96567.13;5020750;28;20045;-79
2022/05/21 00:54:14;;;;;;;10.65;5.97;;;;;;;16.09;100.00;96574.28;5018844;28;20029;-80
2022/05/21 00:56:51;;;;;;;10.15;5.53;;;;;;;16.02;100.00;96576.03;5023925;28;20034;-80
2022/05/21 00:59:59;;;;;;;9.20;5.32;;;;;;;15.96;100.00;96576.78;5010934;28;20041;-80
2022/05/21 01:02:08;;;;;;;8.25;5.40;;;;;;;15.93;100.00;96578.00;5018618;28;20049;-80
2022/05/21 01:04:36;;;;;;;7.60;4.40;;;;;;;15.94;100.00;96576.16;5007110;28;20065;-80
2022/05/21 01:07:04;;;;;;;7.90;4.78;;;;;;;15.87;100.00;96589.34;5010267;28;20578;-79
2022/05/21 01:09:31;;;;;;;9.90;4.85;;;;;;;15.87;100.00;96589.34;5010327;28;20033;-80
2022/05/21 01:11:57;;;;;;;7.80;4.80;;;;;;;15.86;100.00;96597.44;5010303;28;20112;-80
2022/05/21 01:14:23;;;;;;;7.15;4.47;;;;;;;15.75;100.00;96601.38;5017551;28;20080;-79
2022/05/21 01:16:49;;;;;;;11.32;6.57;;;;;;;15.80;100.00;96601.69;5024371;28;20025;-81
2022/05/21 01:19:16;;;;;;;7.85;5.47;;;;;;;15.90;100.00;96601.41;5024446;28;20029;-81
2022/05/21 01:21:43;;;;;;;9.02;5.40;;;;;;;15.99;100.00;96608.25;5045014;28;20022;-80
2022/05/21 01:24:11;;;;;;;9.00;5.30;;;;;;;15.91;100.00;96611.00;5012356;28;20472;-79
2022/05/21 01:26:39;;;;;;;8.40;5.55;;;;;;;15.93;100.00;96623.09;5044705;28;20073;-80
2022/05/21 01:29:11;;;;;;;8.77;5.32;;;;;;;15.88;100.00;96616.66;5008550;28;20044;-80
2022/05/21 01:31:38;;;;;;;9.40;5.25;;;;;;;15.84;100.00;96626.81;5027242;28;20034;-80
2022/05/21 01:34:04;;;;;;;8.38;5.32;;;;;;;15.84;100.00;96626.81;5029811;28;20150;-81
2022/05/21 01:36:30;;;;;;;9.15;5.25;;;;;;;15.72;100.00;96626.44;5022174;28;20463;-81
2022/05/21 01:38:57;;;;;;;8.90;5.60;;;;;;;15.76;100.00;96625.09;5038650;28;20060;-80
2022/05/21 01:41:23;;;;;;;9.13;4.80;;;;;;;15.69;100.00;96626.81;5007694;28;20034;-81
2022/05/21 01:46:32;;;;;;;7.85;4.57;;;;;;;15.51;100.00;96636.91;5025491;28;20067;-80
2022/05/21 01:48:58;;;;;;;7.78;4.72;;;;;;;15.43;100.00;96631.69;5015082;28;20446;-80
2022/05/21 01:51:24;;;;;;;9.07;5.65;;;;;;;15.52;100.00;96638.53;5037869;28;20037;-80
2022/05/21 01:53:49;;;;;;;7.53;4.95;;;;;;;15.42;100.00;96638.78;5032514;28;20408;-80
2022/05/21 01:56:16;;;;;;;7.38;4.88;;;;;;;15.51;100.00;96643.03;5027645;28;20045;-78
2022/05/21 01:58:43;;;;;;;7.07;4.47;;;;;;;15.51;100.00;96643.03;5013288;28;20128;-78
2022/05/21 02:01:09;;;;;;;6.40;4.78;;;;;;;15.44;100.00;96631.50;5027094;28;20033;-79
2022/05/21 02:03:36;;;;;;;8.95;5.50;;;;;;;15.37;100.00;96650.94;5024812;28;20464;-80
2022/05/21 02:06:03;;;;;;;8.05;5.78;;;;;;;15.31;100.00;96652.47;5027565;28;20025;-80
2022/05/21 02:08:29;;;;;;;7.17;5.20;;;;;;;15.29;100.00;96654.47;5037043;28;21671;-80
2022/05/21 02:10:55;;;;;;;7.45;4.97;;;;;;;15.29;100.00;96655.31;5016715;28;20034;-80
2022/05/21 02:13:31;;;;;;;9.25;5.38;;;;;;;15.22;100.00;96659.66;5023374;28;20047;-80
2022/05/21 02:15:57;;;;;;;7.65;5.43;;;;;;;15.14;100.00;96662.38;5017761;28;20124;-80
2022/05/21 02:18:23;;;;;;;10.27;5.95;;;;;;;15.15;100.00;96664.03;5041781;28;20033;-80
2022/05/21 02:20:51;;;;;;;11.00;5.22;;;;;;;15.26;100.00;96655.69;5018434;28;20048;-80
2022/05/21 02:23:18;;;;;;;7.63;4.83;;;;;;;15.12;100.00;96661.72;5049055;28;20033;-80
2022/05/21 02:25:44;;;;;;;10.90;5.27;;;;;;;15.22;100.00;96659.66;5031759;28;20034;-81
2022/05/21 02:28:12;;;;;;;8.90;4.88;;;;;;;15.15;100.00;96660.56;5035705;28;20487;-80
2022/05/21 02:30:39;;;;;;;10.17;5.50;;;;;;;15.12;100.00;96661.72;5019400;28;20034;-79
2022/05/21 02:33:04;;;;;;;8.00;5.30;;;;;;;15.08;100.00;96655.97;5038620;28;20028;-80
2022/05/21 02:35:30;;;;;;;7.00;5.30;;;;;;;15.07;100.00;96658.78;5040702;28;20044;-80
2022/05/21 02:40:41;;;;;;;8.50;5.17;;;;;;;14.93;100.00;96670.97;5035731;28;20038;-80
2022/05/21 02:43:06;;;;;;;7.50;5.03;;;;;;;14.87;100.00;96676.97;5030176;28;20109;-80
2022/05/21 02:45:33;;;;;;;7.57;5.00;;;;;;;14.87;100.00;96676.97;5005048;28;20121;-80
2022/05/21 02:47:58;;;;;;;7.70;5.20;;;;;;;14.85;100.00;96684.25;5026568;28;20036;-79
2022/05/21 02:50:28;;;;;;;8.20;4.80;;;;;;;14.85;100.00;96690.41;5024221;28;20038;-80
2022/05/21 02:52:54;;;;;;;8.43;5.20;;;;;;;14.71;100.00;96685.00;5020437;28;20033;-80
2022/05/21 02:55:21;;;;;;;8.77;5.50;;;;;;;14.78;100.00;96692.06;5041214;28;20102;-80
2022/05/21 02:57:47;;;;;;;7.93;5.90;;;;;;;14.72;100.00;96697.22;5042103;28;20038;-81
2022/05/21 03:00:23;;;;;;;6.90;5.10;;;;;;;14.70;100.00;96692.13;5014995;28;20037;-80
2022/05/21 03:02:50;;;;;;;10.00;5.60;;;;;;;14.73;100.00;96696.25;5029054;28;20036;-80
2022/05/21 03:05:16;;;;;;;9.40;5.87;;;;;;;14.68;100.00;96690.66;5019575;28;20030;-80
2022/05/21 03:07:48;;;;;;;8.47;5.57;;;;;;;14.62;100.00;96700.13;5036237;28;20025;-79
2022/05/21 03:10:22;;;;;;;8.77;5.80;;;;;;;14.61;100.00;96698.47;5027919;28;20069;-80
2022/05/21 03:12:48;;;;;;;10.80;4.70;;;;;;;14.37;100.00;96702.00;5024303;28;20167;-80
2022/05/21 03:15:15;;;;;;;8.17;5.33;;;;;;;14.38;100.00;96701.84;5033727;28;20030;-78
2022/05/21 03:17:41;;;;;;;12.27;5.70;;;;;;;14.30;100.00;96704.50;5042663;28;20067;-80
2022/05/21 03:20:07;;;;;;;7.70;4.20;;;;;;;14.04;100.00;96699.47;5024760;28;20699;-80
2022/05/21 03:22:33;;;;;;;7.07;4.93;;;;;;;14.04;100.00;96717.16;5011120;28;20118;-80
2022/05/21 03:24:58;;;;;;;8.33;4.13;;;;;;;13.96;100.00;96714.53;5037375;28;20116;-78
2022/05/21 03:27:24;;;;;;;5.80;4.13;;;;;;;13.91;100.00;96715.84;5028571;28;20022;-79
2022/05/21 03:29:50;;;;;;;6.73;3.70;;;;;;;13.87;100.00;96724.28;5033395;28;20498;-80
2022/05/21 03:32:16;;;;;;;9.37;4.53;;;;;;;13.90;100.00;96719.50;5014357;28;20053;-80
2022/05/21 03:34:41;;;;;;;8.17;4.13;;;;;;;13.83;100.00;96728.25;5039722;28;20490;-77
2022/05/21 03:37:07;;;;;;;7.90;4.50;;;;;;;13.76;100.00;96730.75;5020281;28;20029;-78
2022/05/21 03:39:33;;;;;;;7.37;4.07;;;;;;;13.62;100.00;96729.59;5010262;28;20035;-78
2022/05/21 03:41:59;;;;;;;8.93;4.03;;;;;;;13.69;100.00;96729.78;5007951;28;20029;-78
2022/05/21 03:44:27;;;;;;;7.67;4.17;;;;;;;13.60;100.00;96734.22;5030352;28;20021;-80
2022/05/21 03:46:53;;;;;;;5.20;3.90;;;;;;;13.51;100.00;96742.31;5012387;28;20064;-79
2022/05/21 03:49:19;;;;;;;7.73;4.20;;;;;;;13.38;100.00;96748.94;5005123;28;20476;-79
2022/05/21 03:51:47;;;;;;;7.63;4.40;;;;;;;13.38;100.00;96748.94;5029639;28;20103;-79
2022/05/21 03:54:12;;;;;;;9.27;4.50;;;;;;;13.35;100.00;96749.25;5004872;28;20033;-80
2022/05/21 03:56:38;;;;;;;7.33;4.70;;;;;;;13.37;100.00;96749.91;5023917;28;20042;-79
2022/05/21 03:59:04;;;;;;;7.10;4.30;;;;;;;13.25;100.00;96756.50;5008497;28;20026;-78
2022/05/21 04:01:29;;;;;;;7.50;3.87;;;;;;;13.27;100.00;96757.16;5027520;28;20369;-78
2022/05/21 04:03:56;;;;;;;7.27;4.07;;;;;;;13.19;100.00;96760.59;5014941;28;20109;-80
2022/05/21 04:06:22;;;;;;;5.83;3.80;;;;;;;13.13;100.00;96763.06;5022328;28;20037;-80
2022/05/21 04:08:49;;;;;;;5.80;4.23;;;;;;;13.00;100.00;96765.34;5007690;28;20107;-79
2022/05/21 04:11:15;;;;;;;6.77;4.03;;;;;;;13.07;100.00;96774.25;5028143;28;20494;-77
2022/05/21 04:13:41;;;;;;;9.07;4.07;;;;;;;13.03;100.00;96775.56;5024641;28;20339;-79
2022/05/21 04:16:07;;;;;;;6.73;4.60;;;;;;;13.10;100.00;96771.28;5020365;28;20041;-80
2022/05/21 04:18:33;;;;;;;7.80;4.57;;;;;;;12.89;100.00;96777.03;5028715;28;20034;-78
2022/05/21 04:20:59;;;;;;;7.50;4.47;;;;;;;12.84;100.00;96772.19;5035108;28;20030;-78
2022/05/21 04:23:26;;;;;;;9.80;4.20;;;;;;;12.89;100.00;96774.38;5038503;28;20033;-77
2022/05/21 04:25:51;;;;;;;7.67;4.63;;;;;;;12.87;100.00;96776.34;5027058;28;20040;-78
2022/05/21 04:28:17;;;;;;;9.50;5.03;;;;;;;13.05;100.00;96778.88;5013323;28;20021;-80
2022/05/21 04:30:43;;;;;;;9.90;5.80;;;;;;;12.98;100.00;96783.97;5014711;28;20071;-79
2022/05/21 04:33:09;;;;;;;11.10;6.37;;;;;;;13.27;100.00;96783.56;5040280;28;20033;-79
2022/05/21 04:38:19;;;;;;;10.53;4.93;;;;;;;13.19;100.00;96786.19;5035677;28;20040;-79
2022/05/21 04:40:46;;;;;;;8.50;5.13;;;;;;;13.47;100.00;96788.56;5007553;28;20016;-78
2022/05/21 04:43:12;;;;;;;8.13;5.53;;;;;;;13.47;100.00;96775.34;5025270;28;20107;-78
2022/05/21 04:45:38;;;;;;;8.23;5.27;;;;;;;13.56;100.00;96772.53;5026819;28;20037;-79
2022/05/21 04:48:05;;;;;;;8.80;5.17;;;;;;;13.51;100.00;96776.66;5032231;28;20026;-79
2022/05/21 04:50:30;;;;;;;9.47;6.07;;;;;;;13.75;100.00;96768.75;5040632;28;20040;-79
2022/05/21 04:52:56;;;;;;;7.17;4.87;;;;;;;13.58;100.00;96769.72;5034277;28;20029;-79
2022/05/21 04:55:22;;;;;;;10.17;5.77;;;;;;;13.48;100.00;96777.84;5006321;28;20113;-79
2022/05/21 04:57:48;;;;;;;7.90;5.27;;;;;;;13.80;100.00;96773.53;5021130;28;20381;-80
2022/05/21 05:00:16;;;;;;;7.53;5.37;;;;;;;13.83;100.00;96774.03;5018113;28;20034;-79
2022/05/21 05:02:42;;;;;;;7.10;5.10;;;;;;;13.90;100.00;96779.47;5017521;28;20039;-79
2022/05/21 05:05:09;;;;;;;8.97;5.40;;;;;;;13.75;100.00;96787.25;5020254;28;20049;-79
2022/05/21 05:07:36;;;;;;;7.27;5.33;;;;;;;13.76;100.00;96783.63;5025634;28;20029;-79
2022/05/21 05:10:02;;;;;;;9.37;5.43;;;;;;;14.15;100.00;96791.69;5023664;28;20022;-79
2022/05/21 05:12:29;;;;;;;7.03;5.00;;;;;;;14.28;100.00;96790.31;5006805;28;20056;-79
2022/05/21 05:14:54;;;;;;;7.30;4.70;;;;;;;14.24;100.00;96784.56;5032698;28;20036;-79
2022/05/21 05:17:22;;;;;;;11.13;5.27;;;;;;;14.20;100.00;96796.47;5025165;28;20048;-79
2022/05/21 05:19:48;;;;;;;7.13;4.70;;;;;;;14.24;100.00;96779.25;5048076;28;20069;-79
2022/05/21 05:22:14;;;;;;;7.87;5.83;;;;;;;14.35;100.00;96781.56;5018568;28;20128;-79
2022/05/21 05:24:40;;;;;;;11.10;8.43;;;;;;;14.55;100.00;96782.03;5024631;28;20475;-80
2022/05/21 05:27:06;;;;;;;8.33;6.13;;;;;;;14.48;100.00;96780.19;5013185;28;20026;-79
2022/05/21 05:29:32;;;;;;;9.10;6.07;;;;;;;14.12;100.00;96785.91;5014453;28;20037;-78
2022/05/21 05:31:58;;;;;;;9.33;6.00;;;;;;;13.81;100.00;96783.94;5016289;28;20029;-79
2022/05/21 05:34:24;;;;;;;7.90;6.17;;;;;;;13.69;100.00;96787.91;5006698;28;20034;-79
2022/05/21 05:36:49;;;;;;;8.50;5.93;;;;;;;13.56;100.00;96796.34;5029858;28;20056;-79
2022/05/21 05:39:16;;;;;;;15.73;7.30;;;;;;;14.10;100.00;96793.19;5035529;28;20040;-79
2022/05/21 05:41:42;;;;;;;8.00;6.17;;;;;;;14.31;100.00;96785.53;5015862;28;20073;-78
2022/05/21 05:44:08;;;;;;;7.00;5.83;;;;;;;14.34;100.00;96787.84;5012605;28;20041;-78
2022/05/21 05:46:33;;;;;;;6.63;5.90;;;;;;;14.49;100.00;96792.44;5018119;28;20042;-78
2022/05/21 05:48:59;;;;;;;9.33;6.30;;;;;;;14.52;100.00;96790.31;5033387;28;20116;-80
2022/05/21 05:51:26;;;;;;;9.20;6.10;;;;;;;14.54;100.00;96790.97;5017866;28;20030;-80
2022/05/21 05:53:53;;;;;;;9.17;6.70;;;;;;;14.70;100.00;96798.03;5030548;28;20036;-79
2022/05/21 05:56:19;;;;;;;10.00;6.50;;;;;;;15.24;100.00;96790.16;5021245;28;20033;-78
2022/05/21 06:01:29;;;;;;;10.33;5.80;;;;;;;15.31;100.00;96791.09;5034860;28;20037;-81
2022/05/21 06:03:55;;;;;;;7.40;5.47;;;;;;;15.43;100.00;96793.38;5029633;28;20036;-79
2022/05/21 06:06:22;;;;;;;8.63;6.30;;;;;;;15.72;100.00;96790.84;5030551;28;20033;-81
2022/05/21 06:08:48;;;;;;;9.23;6.57;;;;;;;16.28;100.00;96793.16;5031144;28;22914;-78
2022/05/21 06:11:16;;;;;;;9.23;7.20;;;;;;;15.42;100.00;96797.00;5021451;28;20109;-80
2022/05/21 06:13:42;;;;;;;8.13;7.13;;;;;;;15.47;100.00;96794.66;5034137;28;20071;-77
2022/05/21 06:16:08;;;;;;;9.77;6.90;;;;;;;16.07;100.00;96791.22;5018594;28;20036;-81
2022/05/21 06:18:34;;;;;;;10.37;7.33;;;;;;;15.94;100.00;96793.66;5037001;28;20030;-78
2022/05/21 06:21:01;;;;;;;9.95;6.60;;;;;;;15.70;100.00;96806.13;5019299;28;20097;-78
2022/05/21 06:23:30;;;;;;;8.97;7.03;;;;;;;16.02;100.00;96793.56;5031978;28;20026;-81
2022/05/21 06:25:57;;;;;;;7.73;6.43;;;;;;;16.00;100.00;96799.06;5034246;28;20072;-80
2022/05/21 06:28:23;;;;;;;9.60;6.82;;;;;;;16.08;100.00;96800.81;5027327;28;20040;-79
2022/05/21 06:30:49;;;;;;;8.32;5.63;;;;;;;16.60;100.00;96799.13;5004304;28;20148;-79
2022/05/21 06:33:23;;;;;;;7.03;5.28;;;;;;;16.61;100.00;96798.16;5007973;28;20433;-79
2022/05/21 06:36:01;;;;;;;7.35;4.63;;;;;;;16.96;100.00;96804.56;5027694;28;20103;-76
2022/05/21 06:38:26;;;;;;;6.38;4.50;;;;;;;17.17;100.00;96801.97;5032678;28;20038;-80
2022/05/21 06:40:52;;;;;;;7.40;4.50;;;;;;;16.93;100.00;96803.13;5031547;28;20036;-80
2022/05/21 06:43:20;;;;;;;6.07;3.83;;;;;;;17.14;100.00;96798.88;5009506;28;20068;-80
2022/05/21 06:45:46;;;;;;;4.18;3.03;;;;;;;16.89;100.00;96807.13;5032100;28;20036;-79
2022/05/21 06:48:11;;;;;;;4.53;2.78;;;;;;;17.16;97.58;96797.63;5009325;28;20025;-80
2022/05/21 06:50:38;;;;;;;5.68;2.88;;;;;;;17.14;94.86;96799.69;5019723;28;20060;-79
2022/05/21 06:53:04;;;;;;;5.70;3.33;;;;;;;17.41;93.80;96799.97;5031732;28;20048;-79
2022/05/21 06:55:31;;;;;;;4.50;2.70;;;;;;;17.50;92.03;96803.31;5021455;28;20034;-79
2022/05/21 06:57:56;;;;;;;5.43;2.53;;;;;;;17.86;87.78;96803.31;5025559;28;20041;-79
2022/05/21 07:00:23;;;;;;;4.38;2.83;;;;;;;17.61;90.37;96802.84;5009285;28;20045;-78
2022/05/21 07:02:51;;;;;;;5.07;3.72;;;;;;;18.17;84.84;96802.94;5012888;28;20022;-79
2022/05/21 07:08:13;;;;;;;6.88;3.08;;;;;;;18.50;85.17;96799.69;5039626;28;20034;-80
2022/05/21 07:10:39;;;;;;;3.38;2.25;;;;;;;18.81;79.26;96791.31;5034132;28;20118;-79
2022/05/21 07:13:05;;;;;;;5.07;2.50;;;;;;;18.31;78.83;96798.56;5018204;28;20111;-78
2022/05/21 07:15:30;;;;;;;3.35;2.15;;;;;;;18.40;80.62;96801.91;5011942;28;20853;-79
2022/05/21 07:18:01;;;;;;;3.67;2.30;;;;;;;18.53;75.13;96799.31;5029033;28;20065;-79
2022/05/21 07:20:28;;;;;;;4.22;1.90;;;;;;;18.48;80.09;96805.25;5022833;28;20048;-80
2022/05/21 07:22:54;;;;;;;4.10;2.30;;;;;;;18.25;80.91;96807.31;5008969;28;20029;-77
2022/05/21 07:25:23;;;;;;;5.45;2.08;;;;;;;18.31;73.45;96803.91;5015434;28;20033;-80
2022/05/21 07:27:50;;;;;;;4.03;1.83;;;;;;;18.16;74.23;96798.66;5025311;28;20018;-78
2022/05/21 07:30:16;;;;;;;3.40;2.00;;;;;;;18.93;68.79;96795.06;5026449;28;20030;-78
2022/05/21 07:32:44;;;;;;;4.00;1.65;;;;;;;18.79;70.73;96794.19;5036251;28;20786;-80
2022/05/21 07:35:13;;;;;;;5.07;1.92;;;;;;;19.30;70.07;96790.28;5027715;28;20029;-80
2022/05/21 07:37:40;;;;;;;2.70;1.38;;;;;;;18.93;70.52;96796.91;5026014;28;20447;-79
2022/05/21 07:40:08;;;;;;;3.17;2.03;;;;;;;18.97;68.47;96795.47;5041690;28;20034;-79
2022/05/21 07:42:38;;;;;;;2.63;1.75;;;;;;;19.28;68.55;96794.97;5004148;28;20511;-80
2022/05/21 07:45:10;;;;;;;2.55;1.60;;;;;;;19.37;66.40;96793.78;5014177;28;20033;-79
2022/05/21 07:47:35;;;;;;;7.60;4.72;;;;;;;20.09;65.19;96791.47;5033529;28;20109;-80
2022/05/21 07:50:01;;;;;;;2.85;1.30;;;;;;;19.57;62.98;96798.34;5015215;28;20111;-79
2022/05/21 07:52:29;;;;;;;7.13;3.97;;;;;;;20.75;57.11;96795.94;5011692;28;20079;-78
2022/05/21 07:54:55;;;;;;;3.70;1.90;;;;;;;19.47;60.45;96807.56;5027401;28;20026;-78
2022/05/21 07:57:21;;;;;;;3.42;1.20;;;;;;;19.74;58.71;96796.97;5022704;28;20083;-78
2022/05/21 07:59:47;;;;;;;1.98;1.05;;;;;;;20.17;58.43;96797.41;5032897;28;20091;-79
2022/05/21 08:02:17;;;;;;;3.00;1.10;;;;;;;19.58;59.88;96805.31;5014634;28;20032;-79
2022/05/21 08:04:45;;;;;;;2.45;1.05;;;;;;;20.20;62.13;96798.88;5017282;28;20045;-78
2022/05/21 08:07:11;;;;;;;3.22;1.52;;;;;;;20.47;55.87;96797.00;5021123;28;20068;-77
2022/05/21 08:09:37;;;;;;;2.10;1.00;;;;;;;20.31;55.88;96792.06;5028151;28;20037;-77
2022/05/21 08:12:04;;;;;;;3.78;0.90;;;;;;;21.53;52.64;96785.97;5036670;28;20056;-78
2022/05/21 08:14:31;;;;;;;4.50;1.10;;;;;;;21.21;52.46;96777.06;5021537;28;20117;-79
2022/05/21 08:16:58;;;;;;;3.00;1.05;;;;;;;20.82;53.81;96784.19;5024745;28;20044;-79
2022/05/21 08:19:24;;;;;;;2.25;1.00;;;;;;;22.57;51.74;96767.66;5027027;28;20029;-79
2022/05/21 08:21:49;;;;;;;21.40;16.55;;;;;;;22.46;49.22;96774.56;5042939;28;20083;-78
2022/05/21 08:27:02;;;;;;;2.67;1.13;;;;;;;22.83;47.84;96775.41;5027934;28;20061;-79
2022/05/21 08:29:33;;;;;;;2.67;0.95;;;;;;;23.59;43.79;96773.25;5028478;28;20034;-80
2022/05/21 08:32:00;;;;;;;3.30;1.00;;;;;;;23.49;45.78;96772.97;5029154;28;20036;-77
2022/05/21 08:34:30;;;;;;;3.17;0.80;;;;;;;22.72;45.76;96778.84;5042696;28;20029;-78
2022/05/21 08:36:57;;;;;;;1.40;0.70;;;;;;;22.35;45.77;96780.66;5024672;28;20029;-80
2022/05/21 08:39:23;;;;;;;2.83;0.70;;;;;;;22.77;45.87;96784.38;5031116;28;20037;-80
2022/05/21 08:41:56;;;;;;;1.23;0.90;;;;;;;22.78;45.98;96782.50;5023363;28;20037;-79
2022/05/21 08:44:31;;;;;;;10.73;7.20;;;;;;;23.51;45.60;96779.75;5027755;28;20057;-79
2022/05/21 08:47:21;;;;;;;4.60;2.80;;;;;;;23.41;44.91;96790.22;5018597;28;20037;-80
2022/05/21 08:50:00;;;;;;;6.25;3.20;;;;;;;23.16;45.34;96784.97;5037168;28;20041;-80
2022/05/21 08:52:41;;;;;;;3.70;1.38;;;;;;;23.01;45.61;96781.84;5012049;28;20390;-79
2022/05/21 08:55:10;;;;;;;2.70;0.85;;;;;;;23.38;43.16;96782.63;5018776;28;20184;-79
2022/05/21 08:57:51;;;;;;;5.68;0.90;;;;;;;22.56;44.32;96790.94;5028723;28;20045;-79
2022/05/21 09:00:47;;;;;;;4.68;0.75;;;;;;;23.04;45.84;96784.09;5008634;28;20037;-80
2022/05/21 09:03:17;;;;;;;1.33;0.70;;;;;;;22.11;45.94;96788.44;5002840;28;20049;-79
2022/05/21 09:05:47;;;;;;;3.97;0.82;;;;;;;22.42;44.43;96788.63;5023811;28;20640;-79
2022/05/21 09:08:39;;;;;;;3.40;1.20;;;;;;;22.48;44.42;96777.03;5030579;28;20110;-80
2022/05/21 09:11:14;;;;;;;0.95;0.73;;;;;;;22.78;43.00;96777.94;5024787;28;20113;-78
2022/05/21 09:14:07;;;;;;;1.75;0.70;;;;;;;22.61;44.08;96784.13;5026623;28;20064;-79
2022/05/21 09:16:54;;;;;;;3.97;0.90;;;;;;;22.65;45.14;96778.09;5027019;28;20073;-77
2022/05/21 09:19:23;;;;;;;2.78;0.88;;;;;;;23.06;44.19;96765.88;5009192;28;20048;-78
2022/05/21 09:21:56;;;;;;;2.35;0.90;;;;;;;23.08;43.74;96771.88;5026607;28;20047;-76
2022/05/21 09:24:45;;;;;;;2.17;0.95;;;;;;;22.77;42.98;96776.31;5030555;28;20036;-78
2022/05/21 09:27:32;;;;;;;2.50;0.80;;;;;;;21.98;45.54;96783.19;5022723;28;20030;-78
2022/05/21 09:30:28;;;;;;;2.70;0.80;;;;;;;23.09;42.96;96778.03;5006191;28;20683;-77
2022/05/21 09:33:21;;;;;;;3.83;0.60;;;;;;;23.44;43.75;96770.13;5053623;28;20037;-79
2022/05/21 09:35:56;;;;;;;1.35;0.80;;;;;;;24.11;42.23;96760.09;5028672;28;20040;-78
2022/05/21 09:38:30;;;;;;;2.70;0.85;;;;;;;24.13;42.41;96766.03;5027736;28;20120;-77
2022/05/21 09:41:05;;;;;;;1.55;0.70;;;;;;;23.58;42.26;96766.25;5026042;28;20025;-77
2022/05/21 09:46:28;;;;;;;1.67;0.60;;;;;;;24.57;43.17;96753.09;5018163;28;20093;-79
2022/05/21 09:49:13;;;;;;;2.85;0.65;;;;;;;24.55;40.91;96751.72;5023938;28;20041;-78
2022/05/21 09:51:42;;;;;;;1.85;0.40;;;;;;;23.91;42.30;96759.56;5024786;28;20034;-78
2022/05/21 09:54:22;;;;;;;1.67;0.60;;;;;;;24.75;41.05;96760.22;5029336;28;20021;-78
2022/05/21 09:56:54;;;;;;;1.35;0.57;;;;;;;25.19;40.05;96760.63;5031948;28;20037;-79
2022/05/21 09:59:25;;;;;;;1.80;0.65;;;;;;;24.67;39.23;96753.31;5023955;28;20548;-78
2022/05/21 10:01:56;;;;;;;3.07;0.93;;;;;;;25.07;39.94;96749.84;5005609;28;20448;-78
2022/05/21 10:04:39;;;;;;;2.42;0.80;;;;;;;24.56;38.19;96740.72;5000354;28;20824;-78
2022/05/21 10:10:58;;;;;;;1.60;0.80;;;;;;;24.81;39.72;96742.31;5023100;28;20033;-78
2022/05/21 10:13:00;;;;;;;7.72;5.38;;;;;;;24.05;38.85;96752.94;5024063;28;20067;-78
2022/05/21 10:15:32;;;;;;;7.18;5.50;;;;;;;23.67;40.52;96747.94;5012199;28;20048;-82
2022/05/21 10:18:39;;;;;;;2.85;0.70;;;;;;;23.59;39.74;96745.59;5031776;28;20119;-77
2022/05/21 10:21:24;;;;;;;3.05;0.68;;;;;;;24.17;39.47;96745.69;5042881;28;20041;-77
2022/05/21 10:24:02;;;;;;;2.25;0.63;;;;;;;24.45;40.04;96744.25;5054879;28;20033;-77
2022/05/21 10:26:43;;;;;;;1.88;0.70;;;;;;;24.17;38.49;96747.56;5019208;28;20072;-77
2022/05/21 10:29:23;;;;;;;1.02;0.50;;;;;;;23.56;40.20;96746.84;5035127;28;20135;-77
2022/05/21 10:32:18;;;;;;;1.52;0.60;;;;;;;24.75;38.84;96736.00;5008776;28;20030;-78
2022/05/21 10:34:44;;;;;;;4.40;0.90;;;;;;;24.30;39.31;96739.28;5019490;28;20041;-78
2022/05/21 10:37:26;;;;;;;2.20;0.55;;;;;;;25.17;39.82;96742.00;5033940;28;20025;-79
2022/05/21 10:40:19;;;;;;;1.17;0.57;;;;;;;24.88;37.70;96742.97;5039501;28;20115;-80
2022/05/21 10:42:57;;;;;;;5.30;1.75;;;;;;;25.48;37.15;96741.75;5055711;28;20493;-79
2022/05/21 10:45:36;;;;;;;2.40;0.93;;;;;;;24.30;38.58;96741.97;5041845;28;20034;-80
2022/05/21 10:48:41;;;;;;;1.80;0.50;;;;;;;23.93;37.60;96731.44;5036038;28;20034;-80
2022/05/21 10:51:09;;;;;;;4.80;2.40;;;;;;;24.51;38.76;96743.28;5052317;28;20570;-78
2022/05/21 10:54:02;;;;;;;4.82;1.60;;;;;;;24.30;36.40;96735.78;5023007;28;20034;-79
2022/05/21 10:56:48;;;;;;;1.90;0.63;;;;;;;23.73;38.17;96742.50;5029791;28;20108;-79
2022/05/21 10:59:40;;;;;;;6.10;3.65;;;;;;;24.03;38.77;96738.09;5014335;28;20100;-82
2022/05/21 11:02:31;;;;;;;2.70;0.85;;;;;;;23.92;39.08;96735.19;5033305;28;20064;-79
2022/05/21 11:05:29;;;;;;;1.30;0.70;;;;;;;24.30;38.50;96731.22;5025745;28;20066;-78
2022/05/21 11:08:17;;;;;;;1.13;0.55;;;;;;;24.13;37.75;96733.78;5019775;28;20029;-80
2022/05/21 11:11:02;;;;;;;3.47;0.88;;;;;;;24.21;38.20;96721.88;5016792;28;20041;-77
2022/05/21 11:13:36;;;;;;;2.03;0.75;;;;;;;24.10;40.06;96720.00;5014213;28;20026;-76
2022/05/21 11:16:35;;;;;;;1.98;0.98;;;;;;;25.14;37.16;96720.94;5004781;28;20033;-77
2022/05/21 11:19:53;;;;;;;2.55;0.80;;;;;;;23.93;38.47;96714.50;5023249;28;20052;-75
2022/05/21 11:22:25;;;;;;;5.22;1.00;;;;;;;24.67;37.04;96721.03;5011811;28;20040;-78
2022/05/21 11:25:00;;;;;;;9.93;1.10;;;;;;;24.72;37.48;96714.16;5014899;28;20029;-76
2022/05/21 11:27:34;;;;;;;10.77;1.52;;;;;;;24.25;37.82;96703.44;5020018;28;20068;-77
2022/05/21 11:30:12;;;;;;;2.75;0.63;;;;;;;24.13;37.13;96714.16;5032887;28;20102;-78
2022/05/21 11:38:27;;;;;;;6.10;1.13;;;;;;;24.07;37.38;96710.53;5024745;28;20029;-78
2022/05/21 11:41:24;;;;;;;1.77;1.00;;;;;;;24.63;36.60;96708.31;5000408;28;20040;-78
2022/05/21 11:46:52;;;;;;;26.13;16.80;;;;;;;24.15;35.64;96706.69;5030704;28;20052;-77
2022/05/21 11:49:43;;;;;;;2.70;0.90;;;;;;;25.13;35.81;96702.34;5003705;28;20029;-79
2022/05/21 11:52:46;;;;;;;2.45;0.70;;;;;;;25.37;35.57;96706.56;5013575;28;20061;-78
2022/05/21 11:55:14;;;;;;;4.20;0.90;;;;;;;24.63;35.29;96701.06;5025701;28;20068;-79
2022/05/21 11:57:45;;;;;;;3.60;0.90;;;;;;;24.80;35.04;96697.63;5029840;28;20738;-79
2022/05/21 12:00:17;;;;;;;1.50;0.90;;;;;;;25.25;33.81;96692.38;5033630;28;20044;-79
2022/05/21 12:02:55;;;;;;;2.67;1.08;;;;;;;26.33;34.84;96689.56;5030209;28;20045;-79
2022/05/21 12:05:41;;;;;;;6.70;4.40;;;;;;;25.24;34.68;96692.59;5029123;28;20154;-79
2022/05/21 12:08:22;;;;;;;1.48;0.60;;;;;;;25.26;34.89;96695.88;5020941;28;20069;-79
2022/05/21 12:10:56;;;;;;;1.60;0.65;;;;;;;24.72;33.94;96689.94;5019524;28;20563;-79
2022/05/21 12:13:52;;;;;;;7.88;4.13;;;;;;;25.52;33.92;96684.50;5019572;28;20040;-78
2022/05/21 12:16:20;;;;;;;6.57;3.08;;;;;;;25.21;33.85;96695.75;5033584;28;20041;-79